Archival Weather

Snohomish County (Paine Fld)

Everett, Washington (KPAE)

Report from: Wednesday, November 15, 2023 9:53 AM PST
Current time: Friday, June 21, 2024 12:29 AM PDT

Current weather – Weather history – Daily summaries
Weather forecast

Temperature4.4°C (39.9°F)
Dew point1.1°C (34.0°F)
Winds Calm
Visibility10 mi. (16.1 km)
Clouds Few clouds 11,000 ft. (3,353 m)
Altimeter29.96 in.Hg (1015 mB)
Relative humidity79 %
Density altitude-1,243 ft. (-379 m)
Sea-level pressure101.5 kPa (1015 mB, 29.97 in.Hg)
Max temp last 6 hours5.0°C (41.0°F)
Min temp last 6 hours1.7°C (35.1°F)
Remarks Automated weather observing station with precipitation discriminator
Pressure rising, then falling
Flight conditions Visual Meteorological Conditions
Raw dataKPAE 151753Z 00000KT 10SM FEW110 04/01 A2996 RMK AO2 SLP150 T00440011 10050 20017 50001
An error has occurred. This application may no longer respond until reloaded. Reload 🗙